sensor_id;sensor_type;location;lat;lon;timestamp;P1;durP1;ratioP1;P2;durP2;ratioP2
66669;SDS011;53568;52.164;4.472;2024-02-21T00:01:39;10.33;;;6.95;;
66669;SDS011;53568;52.164;4.472;2024-02-21T00:04:04;9.92;;;6.68;;
66669;SDS011;53568;52.164;4.472;2024-02-21T00:06:31;9.68;;;6.59;;
66669;SDS011;53568;52.164;4.472;2024-02-21T00:08:57;9.98;;;6.66;;
66669;SDS011;53568;52.164;4.472;2024-02-21T00:11:23;12.34;;;7.87;;
66669;SDS011;53568;52.164;4.472;2024-02-21T00:13:48;11.56;;;7.45;;
66669;SDS011;53568;52.164;4.472;2024-02-21T00:16:14;11.72;;;7.56;;
66669;SDS011;53568;52.164;4.472;2024-02-21T00:18:41;12.20;;;7.81;;
66669;SDS011;53568;52.164;4.472;2024-02-21T00:21:07;12.11;;;7.79;;
66669;SDS011;53568;52.164;4.472;2024-02-21T00:23:32;12.04;;;7.80;;
66669;SDS011;53568;52.164;4.472;2024-02-21T00:25:58;11.49;;;7.45;;
66669;SDS011;53568;52.164;4.472;2024-02-21T00:28:23;12.42;;;8.13;;
66669;SDS011;53568;52.164;4.472;2024-02-21T00:30:49;11.49;;;7.60;;
66669;SDS011;53568;52.164;4.472;2024-02-21T00:33:16;11.19;;;7.30;;
66669;SDS011;53568;52.164;4.472;2024-02-21T00:35:42;11.88;;;7.66;;
66669;SDS011;53568;52.164;4.472;2024-02-21T00:38:08;11.49;;;7.55;;
66669;SDS011;53568;52.164;4.472;2024-02-21T00:40:33;10.62;;;7.15;;
66669;SDS011;53568;52.164;4.472;2024-02-21T00:43:00;11.15;;;7.35;;
66669;SDS011;53568;52.164;4.472;2024-02-21T00:45:25;11.53;;;7.62;;
66669;SDS011;53568;52.164;4.472;2024-02-21T00:47:51;10.84;;;7.12;;
66669;SDS011;53568;52.164;4.472;2024-02-21T00:50:17;11.13;;;7.27;;
66669;SDS011;53568;52.164;4.472;2024-02-21T00:52:43;11.72;;;7.59;;
66669;SDS011;53568;52.164;4.472;2024-02-21T00:55:09;12.01;;;7.88;;
66669;SDS011;53568;52.164;4.472;2024-02-21T00:57:35;11.33;;;7.57;;
66669;SDS011;53568;52.164;4.472;2024-02-21T01:00:01;11.16;;;7.38;;
66669;SDS011;53568;52.164;4.472;2024-02-21T01:02:27;11.79;;;7.66;;
66669;SDS011;53568;52.164;4.472;2024-02-21T01:04:53;12.82;;;8.16;;
66669;SDS011;53568;52.164;4.472;2024-02-21T01:07:19;12.16;;;7.76;;
66669;SDS011;53568;52.164;4.472;2024-02-21T01:09:44;13.05;;;8.50;;
66669;SDS011;53568;52.164;4.472;2024-02-21T01:12:09;11.68;;;7.64;;
66669;SDS011;53568;52.164;4.472;2024-02-21T01:14:35;10.51;;;7.06;;
66669;SDS011;53568;52.164;4.472;2024-02-21T01:17:00;10.64;;;7.09;;
66669;SDS011;53568;52.164;4.472;2024-02-21T01:19:26;11.07;;;7.39;;
66669;SDS011;53568;52.164;4.472;2024-02-21T01:21:52;11.30;;;7.33;;
66669;SDS011;53568;52.164;4.472;2024-02-21T01:24:17;10.69;;;6.98;;
66669;SDS011;53568;52.164;4.472;2024-02-21T01:26:43;12.35;;;7.96;;
66669;SDS011;53568;52.164;4.472;2024-02-21T01:29:08;11.19;;;7.20;;
66669;SDS011;53568;52.164;4.472;2024-02-21T01:31:34;11.13;;;7.24;;
66669;SDS011;53568;52.164;4.472;2024-02-21T01:33:59;12.83;;;8.19;;
66669;SDS011;53568;52.164;4.472;2024-02-21T01:36:25;11.88;;;7.65;;
66669;SDS011;53568;52.164;4.472;2024-02-21T01:38:50;11.19;;;7.35;;
66669;SDS011;53568;52.164;4.472;2024-02-21T01:41:16;12.57;;;8.04;;
66669;SDS011;53568;52.164;4.472;2024-02-21T01:43:41;11.81;;;7.56;;
66669;SDS011;53568;52.164;4.472;2024-02-21T01:46:07;11.46;;;7.37;;
66669;SDS011;53568;52.164;4.472;2024-02-21T01:48:33;11.88;;;7.70;;
66669;SDS011;53568;52.164;4.472;2024-02-21T01:51:00;10.40;;;6.78;;
66669;SDS011;53568;52.164;4.472;2024-02-21T01:53:30;10.55;;;6.93;;
66669;SDS011;53568;52.164;4.472;2024-02-21T01:56:00;11.42;;;7.54;;
66669;SDS011;53568;52.164;4.472;2024-02-21T01:58:27;11.96;;;7.83;;
66669;SDS011;53568;52.164;4.472;2024-02-21T02:00:56;10.95;;;7.21;;
66669;SDS011;53568;52.164;4.472;2024-02-21T02:03:22;11.00;;;7.21;;
66669;SDS011;53568;52.164;4.472;2024-02-21T02:05:48;11.87;;;7.77;;
66669;SDS011;53568;52.164;4.472;2024-02-21T02:08:15;11.29;;;7.43;;
66669;SDS011;53568;52.164;4.472;2024-02-21T02:10:42;11.28;;;7.35;;
66669;SDS011;53568;52.164;4.472;2024-02-21T02:13:09;12.32;;;7.86;;
66669;SDS011;53568;52.164;4.472;2024-02-21T02:15:42;12.26;;;7.86;;
66669;SDS011;53568;52.164;4.472;2024-02-21T02:18:12;12.24;;;7.92;;
66669;SDS011;53568;52.164;4.472;2024-02-21T02:20:39;11.93;;;7.74;;
66669;SDS011;53568;52.164;4.472;2024-02-21T02:25:38;12.01;;;7.83;;
66669;SDS011;53568;52.164;4.472;2024-02-21T02:28:05;12.25;;;7.95;;
66669;SDS011;53568;52.164;4.472;2024-02-21T02:30:37;10.41;;;6.91;;
66669;SDS011;53568;52.164;4.472;2024-02-21T02:33:05;11.33;;;7.50;;
66669;SDS011;53568;52.164;4.472;2024-02-21T02:35:31;12.48;;;8.11;;
66669;SDS011;53568;52.164;4.472;2024-02-21T02:37:57;11.48;;;7.60;;
66669;SDS011;53568;52.164;4.472;2024-02-21T02:40:23;11.65;;;7.58;;
66669;SDS011;53568;52.164;4.472;2024-02-21T02:42:50;11.29;;;7.44;;
66669;SDS011;53568;52.164;4.472;2024-02-21T02:45:16;10.81;;;7.19;;
66669;SDS011;53568;52.164;4.472;2024-02-21T02:47:46;9.60;;;6.52;;
66669;SDS011;53568;52.164;4.472;2024-02-21T02:50:12;11.08;;;7.29;;
66669;SDS011;53568;52.164;4.472;2024-02-21T02:52:38;10.50;;;6.98;;
66669;SDS011;53568;52.164;4.472;2024-02-21T02:55:04;9.56;;;6.50;;
66669;SDS011;53568;52.164;4.472;2024-02-21T02:57:31;9.97;;;6.76;;
66669;SDS011;53568;52.164;4.472;2024-02-21T02:59:57;9.09;;;6.29;;
66669;SDS011;53568;52.164;4.472;2024-02-21T03:02:22;10.06;;;6.85;;
66669;SDS011;53568;52.164;4.472;2024-02-21T03:04:48;11.10;;;7.29;;
66669;SDS011;53568;52.164;4.472;2024-02-21T03:07:14;10.99;;;7.23;;
66669;SDS011;53568;52.164;4.472;2024-02-21T03:09:40;11.09;;;7.37;;
66669;SDS011;53568;52.164;4.472;2024-02-21T03:12:06;11.20;;;7.46;;
66669;SDS011;53568;52.164;4.472;2024-02-21T03:14:32;11.26;;;7.43;;
66669;SDS011;53568;52.164;4.472;2024-02-21T03:16:58;10.78;;;7.20;;
66669;SDS011;53568;52.164;4.472;2024-02-21T03:19:24;10.42;;;6.99;;
66669;SDS011;53568;52.164;4.472;2024-02-21T03:21:50;10.43;;;7.20;;
66669;SDS011;53568;52.164;4.472;2024-02-21T03:24:16;10.52;;;7.25;;
66669;SDS011;53568;52.164;4.472;2024-02-21T03:26:42;10.03;;;7.02;;
66669;SDS011;53568;52.164;4.472;2024-02-21T03:29:08;9.61;;;6.82;;
66669;SDS011;53568;52.164;4.472;2024-02-21T03:31:37;9.70;;;6.88;;
66669;SDS011;53568;52.164;4.472;2024-02-21T03:34:02;9.82;;;7.04;;
66669;SDS011;53568;52.164;4.472;2024-02-21T03:36:28;8.56;;;6.34;;
66669;SDS011;53568;52.164;4.472;2024-02-21T03:38:54;9.28;;;6.84;;
66669;SDS011;53568;52.164;4.472;2024-02-21T03:41:20;9.39;;;7.02;;
66669;SDS011;53568;52.164;4.472;2024-02-21T03:43:45;9.02;;;6.86;;
66669;SDS011;53568;52.164;4.472;2024-02-21T03:46:11;9.07;;;6.84;;
66669;SDS011;53568;52.164;4.472;2024-02-21T03:48:36;9.06;;;6.93;;
66669;SDS011;53568;52.164;4.472;2024-02-21T03:51:02;8.08;;;6.43;;
66669;SDS011;53568;52.164;4.472;2024-02-21T03:53:27;8.44;;;6.76;;
66669;SDS011;53568;52.164;4.472;2024-02-21T03:55:53;8.16;;;6.71;;
66669;SDS011;53568;52.164;4.472;2024-02-21T03:58:20;8.11;;;6.69;;
66669;SDS011;53568;52.164;4.472;2024-02-21T04:00:45;7.91;;;6.62;;
66669;SDS011;53568;52.164;4.472;2024-02-21T04:03:11;7.43;;;6.35;;
66669;SDS011;53568;52.164;4.472;2024-02-21T04:05:37;7.25;;;6.32;;
66669;SDS011;53568;52.164;4.472;2024-02-21T04:08:05;7.26;;;6.64;;
66669;SDS011;53568;52.164;4.472;2024-02-21T04:10:31;6.79;;;6.30;;
66669;SDS011;53568;52.164;4.472;2024-02-21T04:12:57;7.06;;;6.57;;
66669;SDS011;53568;52.164;4.472;2024-02-21T04:15:22;7.24;;;6.55;;
66669;SDS011;53568;52.164;4.472;2024-02-21T04:17:48;7.85;;;7.15;;
66669;SDS011;53568;52.164;4.472;2024-02-21T04:20:15;7.63;;;6.95;;
66669;SDS011;53568;52.164;4.472;2024-02-21T04:22:44;7.65;;;7.05;;
66669;SDS011;53568;52.164;4.472;2024-02-21T04:25:11;6.98;;;6.63;;
66669;SDS011;53568;52.164;4.472;2024-02-21T04:27:38;7.50;;;7.04;;
66669;SDS011;53568;52.164;4.472;2024-02-21T04:30:04;7.80;;;7.16;;
66669;SDS011;53568;52.164;4.472;2024-02-21T04:32:30;7.62;;;7.09;;
66669;SDS011;53568;52.164;4.472;2024-02-21T04:34:56;7.55;;;7.07;;
66669;SDS011;53568;52.164;4.472;2024-02-21T04:37:21;7.62;;;7.18;;
66669;SDS011;53568;52.164;4.472;2024-02-21T04:39:48;7.48;;;7.09;;
66669;SDS011;53568;52.164;4.472;2024-02-21T04:42:14;7.72;;;7.51;;
66669;SDS011;53568;52.164;4.472;2024-02-21T04:44:40;7.85;;;7.62;;
66669;SDS011;53568;52.164;4.472;2024-02-21T04:47:06;7.58;;;7.31;;
66669;SDS011;53568;52.164;4.472;2024-02-21T04:49:32;7.94;;;7.80;;
66669;SDS011;53568;52.164;4.472;2024-02-21T04:51:58;7.92;;;7.65;;
66669;SDS011;53568;52.164;4.472;2024-02-21T04:54:23;7.97;;;7.68;;
66669;SDS011;53568;52.164;4.472;2024-02-21T04:56:49;8.07;;;7.75;;
66669;SDS011;53568;52.164;4.472;2024-02-21T04:59:15;7.71;;;7.49;;
66669;SDS011;53568;52.164;4.472;2024-02-21T05:01:40;7.87;;;7.59;;
66669;SDS011;53568;52.164;4.472;2024-02-21T05:04:06;7.93;;;7.68;;
66669;SDS011;53568;52.164;4.472;2024-02-21T05:06:31;7.93;;;7.72;;
66669;SDS011;53568;52.164;4.472;2024-02-21T05:08:57;7.34;;;7.27;;
66669;SDS011;53568;52.164;4.472;2024-02-21T05:11:23;7.88;;;7.64;;
66669;SDS011;53568;52.164;4.472;2024-02-21T05:13:49;7.67;;;7.38;;
66669;SDS011;53568;52.164;4.472;2024-02-21T05:16:15;7.75;;;7.52;;
66669;SDS011;53568;52.164;4.472;2024-02-21T05:18:41;7.34;;;7.22;;
66669;SDS011;53568;52.164;4.472;2024-02-21T05:21:07;7.20;;;7.10;;
66669;SDS011;53568;52.164;4.472;2024-02-21T05:23:33;7.49;;;7.22;;
66669;SDS011;53568;52.164;4.472;2024-02-21T05:25:59;6.98;;;6.74;;
66669;SDS011;53568;52.164;4.472;2024-02-21T05:28:24;7.01;;;6.75;;
66669;SDS011;53568;52.164;4.472;2024-02-21T05:30:50;7.06;;;6.73;;
66669;SDS011;53568;52.164;4.472;2024-02-21T05:33:15;7.47;;;7.15;;
66669;SDS011;53568;52.164;4.472;2024-02-21T05:35:46;7.26;;;7.24;;
66669;SDS011;53568;52.164;4.472;2024-02-21T05:38:15;7.65;;;7.51;;
66669;SDS011;53568;52.164;4.472;2024-02-21T05:40:42;7.85;;;7.76;;
66669;SDS011;53568;52.164;4.472;2024-02-21T05:43:10;8.54;;;8.53;;
66669;SDS011;53568;52.164;4.472;2024-02-21T05:45:36;8.82;;;8.80;;
66669;SDS011;53568;52.164;4.472;2024-02-21T05:48:02;9.54;;;9.54;;
66669;SDS011;53568;52.164;4.472;2024-02-21T05:50:28;10.84;;;10.84;;
66669;SDS011;53568;52.164;4.472;2024-02-21T05:52:54;11.73;;;11.73;;
66669;SDS011;53568;52.164;4.472;2024-02-21T05:55:20;11.95;;;11.95;;
66669;SDS011;53568;52.164;4.472;2024-02-21T05:57:46;11.54;;;11.50;;
66669;SDS011;53568;52.164;4.472;2024-02-21T06:00:12;11.69;;;11.68;;
66669;SDS011;53568;52.164;4.472;2024-02-21T06:02:39;11.81;;;11.81;;
66669;SDS011;53568;52.164;4.472;2024-02-21T06:05:05;11.50;;;11.50;;
66669;SDS011;53568;52.164;4.472;2024-02-21T06:07:32;11.58;;;11.50;;
66669;SDS011;53568;52.164;4.472;2024-02-21T06:09:59;11.74;;;11.72;;
66669;SDS011;53568;52.164;4.472;2024-02-21T06:12:25;11.95;;;11.95;;
66669;SDS011;53568;52.164;4.472;2024-02-21T06:14:51;12.02;;;11.99;;
66669;SDS011;53568;52.164;4.472;2024-02-21T06:17:17;12.31;;;12.26;;
66669;SDS011;53568;52.164;4.472;2024-02-21T06:19:43;11.79;;;11.79;;
66669;SDS011;53568;52.164;4.472;2024-02-21T06:22:09;12.43;;;12.43;;
66669;SDS011;53568;52.164;4.472;2024-02-21T06:24:35;12.25;;;12.25;;
66669;SDS011;53568;52.164;4.472;2024-02-21T06:27:02;13.16;;;13.10;;
66669;SDS011;53568;52.164;4.472;2024-02-21T06:29:28;13.51;;;13.40;;
66669;SDS011;53568;52.164;4.472;2024-02-21T06:31:54;13.30;;;13.30;;
66669;SDS011;53568;52.164;4.472;2024-02-21T06:34:19;13.45;;;13.44;;
66669;SDS011;53568;52.164;4.472;2024-02-21T06:36:45;13.17;;;13.17;;
66669;SDS011;53568;52.164;4.472;2024-02-21T06:39:10;13.29;;;13.29;;
66669;SDS011;53568;52.164;4.472;2024-02-21T06:41:36;13.74;;;13.74;;
66669;SDS011;53568;52.164;4.472;2024-02-21T06:44:02;13.81;;;13.81;;
66669;SDS011;53568;52.164;4.472;2024-02-21T06:46:29;14.56;;;14.56;;
66669;SDS011;53568;52.164;4.472;2024-02-21T06:48:55;14.67;;;14.67;;
66669;SDS011;53568;52.164;4.472;2024-02-21T06:51:25;14.68;;;14.68;;
66669;SDS011;53568;52.164;4.472;2024-02-21T06:53:51;15.27;;;15.21;;
66669;SDS011;53568;52.164;4.472;2024-02-21T06:56:17;15.47;;;15.47;;
66669;SDS011;53568;52.164;4.472;2024-02-21T06:58:42;16.57;;;16.47;;
66669;SDS011;53568;52.164;4.472;2024-02-21T07:01:08;16.16;;;16.16;;
66669;SDS011;53568;52.164;4.472;2024-02-21T07:03:34;16.38;;;16.38;;
66669;SDS011;53568;52.164;4.472;2024-02-21T07:06:00;16.18;;;16.17;;
66669;SDS011;53568;52.164;4.472;2024-02-21T07:08:25;16.30;;;16.30;;
66669;SDS011;53568;52.164;4.472;2024-02-21T07:10:51;16.52;;;16.52;;
66669;SDS011;53568;52.164;4.472;2024-02-21T07:13:17;16.86;;;16.70;;
66669;SDS011;53568;52.164;4.472;2024-02-21T07:15:42;16.45;;;16.37;;
66669;SDS011;53568;52.164;4.472;2024-02-21T07:18:08;16.73;;;16.68;;
66669;SDS011;53568;52.164;4.472;2024-02-21T07:20:34;17.09;;;16.94;;
66669;SDS011;53568;52.164;4.472;2024-02-21T07:23:02;16.50;;;16.40;;
66669;SDS011;53568;52.164;4.472;2024-02-21T07:25:27;16.88;;;16.86;;
66669;SDS011;53568;52.164;4.472;2024-02-21T07:27:53;17.65;;;17.65;;
66669;SDS011;53568;52.164;4.472;2024-02-21T07:30:18;17.69;;;17.69;;
66669;SDS011;53568;52.164;4.472;2024-02-21T07:32:44;17.82;;;17.76;;
66669;SDS011;53568;52.164;4.472;2024-02-21T07:35:10;18.53;;;18.39;;
66669;SDS011;53568;52.164;4.472;2024-02-21T07:37:37;18.19;;;18.04;;
66669;SDS011;53568;52.164;4.472;2024-02-21T07:40:06;18.09;;;18.06;;
66669;SDS011;53568;52.164;4.472;2024-02-21T07:42:32;17.34;;;17.32;;
66669;SDS011;53568;52.164;4.472;2024-02-21T07:44:58;17.58;;;17.49;;
66669;SDS011;53568;52.164;4.472;2024-02-21T07:47:23;18.17;;;17.97;;
66669;SDS011;53568;52.164;4.472;2024-02-21T07:49:49;18.91;;;18.77;;
66669;SDS011;53568;52.164;4.472;2024-02-21T07:52:15;17.57;;;17.53;;
66669;SDS011;53568;52.164;4.472;2024-02-21T07:54:41;18.02;;;17.88;;
66669;SDS011;53568;52.164;4.472;2024-02-21T07:57:07;18.87;;;18.62;;
66669;SDS011;53568;52.164;4.472;2024-02-21T07:59:32;19.28;;;18.96;;
66669;SDS011;53568;52.164;4.472;2024-02-21T08:01:58;19.23;;;18.94;;
66669;SDS011;53568;52.164;4.472;2024-02-21T08:04:24;18.95;;;18.71;;
66669;SDS011;53568;52.164;4.472;2024-02-21T08:06:56;18.95;;;18.83;;
66669;SDS011;53568;52.164;4.472;2024-02-21T08:09:22;19.98;;;19.73;;
66669;SDS011;53568;52.164;4.472;2024-02-21T08:11:48;19.15;;;19.03;;
66669;SDS011;53568;52.164;4.472;2024-02-21T08:14:14;19.27;;;19.15;;
66669;SDS011;53568;52.164;4.472;2024-02-21T08:16:41;19.18;;;18.99;;
66669;SDS011;53568;52.164;4.472;2024-02-21T08:19:07;18.55;;;18.33;;
66669;SDS011;53568;52.164;4.472;2024-02-21T08:21:33;17.84;;;17.73;;
66669;SDS011;53568;52.164;4.472;2024-02-21T08:23:58;17.74;;;17.69;;
66669;SDS011;53568;52.164;4.472;2024-02-21T08:26:24;17.58;;;17.44;;
66669;SDS011;53568;52.164;4.472;2024-02-21T08:28:53;17.41;;;17.32;;
66669;SDS011;53568;52.164;4.472;2024-02-21T08:31:19;17.26;;;17.14;;
66669;SDS011;53568;52.164;4.472;2024-02-21T08:33:45;17.11;;;16.97;;
66669;SDS011;53568;52.164;4.472;2024-02-21T08:36:17;16.90;;;16.81;;
66669;SDS011;53568;52.164;4.472;2024-02-21T08:38:44;16.20;;;16.05;;
66669;SDS011;53568;52.164;4.472;2024-02-21T08:41:10;17.24;;;17.04;;
66669;SDS011;53568;52.164;4.472;2024-02-21T08:43:36;17.06;;;16.88;;
66669;SDS011;53568;52.164;4.472;2024-02-21T08:46:01;17.42;;;17.27;;
66669;SDS011;53568;52.164;4.472;2024-02-21T08:48:27;19.47;;;19.29;;
66669;SDS011;53568;52.164;4.472;2024-02-21T08:50:53;18.31;;;18.26;;
66669;SDS011;53568;52.164;4.472;2024-02-21T08:53:19;18.53;;;18.49;;
66669;SDS011;53568;52.164;4.472;2024-02-21T08:55:45;19.59;;;19.44;;
66669;SDS011;53568;52.164;4.472;2024-02-21T08:58:11;20.64;;;20.41;;
66669;SDS011;53568;52.164;4.472;2024-02-21T09:00:37;21.60;;;21.50;;
66669;SDS011;53568;52.164;4.472;2024-02-21T09:03:02;22.24;;;22.10;;
66669;SDS011;53568;52.164;4.472;2024-02-21T09:05:28;21.63;;;21.59;;
66669;SDS011;53568;52.164;4.472;2024-02-21T09:07:54;21.75;;;21.66;;
66669;SDS011;53568;52.164;4.472;2024-02-21T09:10:20;21.63;;;21.57;;
66669;SDS011;53568;52.164;4.472;2024-02-21T09:12:46;21.54;;;21.46;;
66669;SDS011;53568;52.164;4.472;2024-02-21T09:15:12;20.85;;;20.81;;
66669;SDS011;53568;52.164;4.472;2024-02-21T09:17:38;20.21;;;20.16;;
66669;SDS011;53568;52.164;4.472;2024-02-21T09:20:04;20.13;;;20.07;;
66669;SDS011;53568;52.164;4.472;2024-02-21T09:22:31;19.42;;;19.25;;
66669;SDS011;53568;52.164;4.472;2024-02-21T09:24:59;19.77;;;19.53;;
66669;SDS011;53568;52.164;4.472;2024-02-21T09:27:26;19.63;;;19.59;;
66669;SDS011;53568;52.164;4.472;2024-02-21T09:29:51;19.54;;;19.24;;
66669;SDS011;53568;52.164;4.472;2024-02-21T09:32:18;19.48;;;19.45;;
66669;SDS011;53568;52.164;4.472;2024-02-21T09:34:44;19.61;;;19.58;;
66669;SDS011;53568;52.164;4.472;2024-02-21T09:37:10;19.13;;;19.03;;
66669;SDS011;53568;52.164;4.472;2024-02-21T09:39:36;18.19;;;18.13;;
66669;SDS011;53568;52.164;4.472;2024-02-21T09:42:11;18.12;;;17.88;;
66669;SDS011;53568;52.164;4.472;2024-02-21T09:44:37;18.46;;;18.37;;
66669;SDS011;53568;52.164;4.472;2024-02-21T09:47:05;18.77;;;18.47;;
66669;SDS011;53568;52.164;4.472;2024-02-21T09:49:35;18.60;;;18.54;;
66669;SDS011;53568;52.164;4.472;2024-02-21T09:52:04;18.28;;;18.26;;
66669;SDS011;53568;52.164;4.472;2024-02-21T09:54:32;17.92;;;17.92;;
66669;SDS011;53568;52.164;4.472;2024-02-21T09:57:01;17.54;;;17.42;;
66669;SDS011;53568;52.164;4.472;2024-02-21T09:59:28;17.91;;;17.90;;
66669;SDS011;53568;52.164;4.472;2024-02-21T10:01:56;18.78;;;18.67;;
66669;SDS011;53568;52.164;4.472;2024-02-21T10:04:23;18.18;;;18.15;;
66669;SDS011;53568;52.164;4.472;2024-02-21T10:06:48;18.55;;;18.55;;
66669;SDS011;53568;52.164;4.472;2024-02-21T10:09:35;18.79;;;18.78;;
66669;SDS011;53568;52.164;4.472;2024-02-21T10:12:09;18.36;;;18.36;;
66669;SDS011;53568;52.164;4.472;2024-02-21T10:14:36;18.26;;;18.22;;
66669;SDS011;53568;52.164;4.472;2024-02-21T10:17:03;18.17;;;17.91;;
66669;SDS011;53568;52.164;4.472;2024-02-21T10:19:30;17.34;;;17.33;;
66669;SDS011;53568;52.164;4.472;2024-02-21T10:22:03;17.12;;;17.12;;
66669;SDS011;53568;52.164;4.472;2024-02-21T10:24:30;16.96;;;16.93;;
66669;SDS011;53568;52.164;4.472;2024-02-21T10:27:04;16.68;;;16.63;;
66669;SDS011;53568;52.164;4.472;2024-02-21T10:29:33;16.50;;;16.26;;
66669;SDS011;53568;52.164;4.472;2024-02-21T10:34:35;16.58;;;16.38;;
66669;SDS011;53568;52.164;4.472;2024-02-21T10:37:04;15.74;;;15.74;;
66669;SDS011;53568;52.164;4.472;2024-02-21T10:39:34;16.45;;;16.45;;
66669;SDS011;53568;52.164;4.472;2024-02-21T10:42:04;17.34;;;17.34;;
66669;SDS011;53568;52.164;4.472;2024-02-21T10:44:34;17.72;;;17.70;;
66669;SDS011;53568;52.164;4.472;2024-02-21T10:47:05;17.78;;;17.77;;
66669;SDS011;53568;52.164;4.472;2024-02-21T10:49:35;17.78;;;17.72;;
66669;SDS011;53568;52.164;4.472;2024-02-21T10:52:14;18.09;;;18.09;;
66669;SDS011;53568;52.164;4.472;2024-02-21T10:54:59;20.10;;;19.74;;
66669;SDS011;53568;52.164;4.472;2024-02-21T10:57:29;19.41;;;19.39;;
66669;SDS011;53568;52.164;4.472;2024-02-21T10:59:56;20.41;;;20.31;;
66669;SDS011;53568;52.164;4.472;2024-02-21T11:02:24;21.17;;;20.77;;
66669;SDS011;53568;52.164;4.472;2024-02-21T11:04:55;20.15;;;20.15;;
66669;SDS011;53568;52.164;4.472;2024-02-21T11:07:21;20.34;;;20.33;;
66669;SDS011;53568;52.164;4.472;2024-02-21T11:09:50;20.05;;;20.00;;
66669;SDS011;53568;52.164;4.472;2024-02-21T11:12:21;20.84;;;20.64;;
66669;SDS011;53568;52.164;4.472;2024-02-21T11:14:47;20.49;;;20.27;;
66669;SDS011;53568;52.164;4.472;2024-02-21T11:17:16;21.17;;;20.87;;
66669;SDS011;53568;52.164;4.472;2024-02-21T11:19:43;19.61;;;19.51;;
66669;SDS011;53568;52.164;4.472;2024-02-21T11:22:17;19.60;;;19.60;;
66669;SDS011;53568;52.164;4.472;2024-02-21T11:24:45;19.70;;;19.70;;
66669;SDS011;53568;52.164;4.472;2024-02-21T11:27:11;20.18;;;20.07;;
66669;SDS011;53568;52.164;4.472;2024-02-21T11:32:37;19.90;;;19.79;;
66669;SDS011;53568;52.164;4.472;2024-02-21T11:35:03;19.66;;;19.64;;
66669;SDS011;53568;52.164;4.472;2024-02-21T11:37:30;19.45;;;19.45;;
66669;SDS011;53568;52.164;4.472;2024-02-21T11:40:04;19.12;;;19.11;;
66669;SDS011;53568;52.164;4.472;2024-02-21T11:42:32;18.97;;;18.97;;
66669;SDS011;53568;52.164;4.472;2024-02-21T11:44:59;19.09;;;19.03;;
66669;SDS011;53568;52.164;4.472;2024-02-21T11:47:25;19.04;;;19.02;;
66669;SDS011;53568;52.164;4.472;2024-02-21T11:49:53;19.18;;;19.17;;
66669;SDS011;53568;52.164;4.472;2024-02-21T11:52:23;18.04;;;18.02;;
66669;SDS011;53568;52.164;4.472;2024-02-21T11:54:53;17.89;;;17.89;;
66669;SDS011;53568;52.164;4.472;2024-02-21T11:57:22;18.16;;;18.16;;
66669;SDS011;53568;52.164;4.472;2024-02-21T11:59:47;17.19;;;17.19;;
66669;SDS011;53568;52.164;4.472;2024-02-21T12:02:14;17.19;;;17.19;;
66669;SDS011;53568;52.164;4.472;2024-02-21T12:04:40;17.24;;;17.23;;
66669;SDS011;53568;52.164;4.472;2024-02-21T12:07:07;17.22;;;17.22;;
66669;SDS011;53568;52.164;4.472;2024-02-21T12:09:33;16.61;;;16.61;;
66669;SDS011;53568;52.164;4.472;2024-02-21T12:12:00;16.34;;;16.34;;
66669;SDS011;53568;52.164;4.472;2024-02-21T12:14:28;16.62;;;16.62;;
66669;SDS011;53568;52.164;4.472;2024-02-21T12:16:55;16.94;;;16.94;;
66669;SDS011;53568;52.164;4.472;2024-02-21T12:19:21;16.10;;;16.09;;
66669;SDS011;53568;52.164;4.472;2024-02-21T12:21:50;15.66;;;15.65;;
66669;SDS011;53568;52.164;4.472;2024-02-21T12:24:26;15.84;;;15.84;;
66669;SDS011;53568;52.164;4.472;2024-02-21T12:26:53;15.01;;;15.01;;
66669;SDS011;53568;52.164;4.472;2024-02-21T12:29:20;14.09;;;14.09;;
66669;SDS011;53568;52.164;4.472;2024-02-21T12:31:46;14.03;;;14.03;;
66669;SDS011;53568;52.164;4.472;2024-02-21T12:34:12;13.78;;;13.78;;
66669;SDS011;53568;52.164;4.472;2024-02-21T12:36:42;13.56;;;13.56;;
66669;SDS011;53568;52.164;4.472;2024-02-21T12:39:11;13.42;;;13.41;;
66669;SDS011;53568;52.164;4.472;2024-02-21T12:41:37;13.06;;;13.06;;
66669;SDS011;53568;52.164;4.472;2024-02-21T12:44:07;13.31;;;13.31;;
66669;SDS011;53568;52.164;4.472;2024-02-21T12:46:33;12.99;;;12.99;;
66669;SDS011;53568;52.164;4.472;2024-02-21T12:49:02;13.48;;;13.48;;
66669;SDS011;53568;52.164;4.472;2024-02-21T12:51:29;13.39;;;13.39;;
66669;SDS011;53568;52.164;4.472;2024-02-21T12:53:55;13.94;;;13.94;;
66669;SDS011;53568;52.164;4.472;2024-02-21T12:56:21;15.02;;;15.02;;
66669;SDS011;53568;52.164;4.472;2024-02-21T12:58:47;14.00;;;14.00;;
66669;SDS011;53568;52.164;4.472;2024-02-21T13:01:13;13.88;;;13.88;;
66669;SDS011;53568;52.164;4.472;2024-02-21T13:03:38;13.92;;;13.92;;
66669;SDS011;53568;52.164;4.472;2024-02-21T13:06:04;14.46;;;14.46;;
66669;SDS011;53568;52.164;4.472;2024-02-21T13:08:30;14.15;;;14.15;;
66669;SDS011;53568;52.164;4.472;2024-02-21T13:10:56;14.26;;;14.26;;
66669;SDS011;53568;52.164;4.472;2024-02-21T13:13:22;14.40;;;14.40;;
66669;SDS011;53568;52.164;4.472;2024-02-21T13:15:47;14.36;;;14.36;;
66669;SDS011;53568;52.164;4.472;2024-02-21T13:18:13;13.59;;;13.59;;
66669;SDS011;53568;52.164;4.472;2024-02-21T13:20:38;14.20;;;14.20;;
66669;SDS011;53568;52.164;4.472;2024-02-21T13:23:04;14.86;;;14.86;;
66669;SDS011;53568;52.164;4.472;2024-02-21T13:25:29;14.53;;;14.53;;
66669;SDS011;53568;52.164;4.472;2024-02-21T13:27:55;14.99;;;14.99;;
66669;SDS011;53568;52.164;4.472;2024-02-21T13:30:21;15.32;;;15.31;;
66669;SDS011;53568;52.164;4.472;2024-02-21T13:32:47;16.34;;;16.34;;
66669;SDS011;53568;52.164;4.472;2024-02-21T13:35:13;15.56;;;15.56;;
66669;SDS011;53568;52.164;4.472;2024-02-21T13:37:40;15.74;;;15.74;;
66669;SDS011;53568;52.164;4.472;2024-02-21T13:40:06;16.24;;;16.24;;
66669;SDS011;53568;52.164;4.472;2024-02-21T13:42:36;17.19;;;17.19;;
66669;SDS011;53568;52.164;4.472;2024-02-21T13:45:02;17.65;;;17.65;;
66669;SDS011;53568;52.164;4.472;2024-02-21T13:47:30;18.01;;;18.01;;
66669;SDS011;53568;52.164;4.472;2024-02-21T13:49:56;18.22;;;18.20;;
66669;SDS011;53568;52.164;4.472;2024-02-21T13:52:22;17.72;;;17.72;;
66669;SDS011;53568;52.164;4.472;2024-02-21T13:54:47;17.88;;;17.88;;
66669;SDS011;53568;52.164;4.472;2024-02-21T13:57:13;18.10;;;18.10;;
66669;SDS011;53568;52.164;4.472;2024-02-21T13:59:39;18.89;;;18.89;;
66669;SDS011;53568;52.164;4.472;2024-02-21T14:02:05;19.79;;;19.79;;
66669;SDS011;53568;52.164;4.472;2024-02-21T14:04:34;21.86;;;21.86;;
66669;SDS011;53568;52.164;4.472;2024-02-21T14:07:00;22.19;;;22.19;;
66669;SDS011;53568;52.164;4.472;2024-02-21T14:09:26;22.31;;;22.31;;
66669;SDS011;53568;52.164;4.472;2024-02-21T14:11:54;20.10;;;20.10;;
66669;SDS011;53568;52.164;4.472;2024-02-21T14:14:20;18.38;;;18.37;;
66669;SDS011;53568;52.164;4.472;2024-02-21T14:16:46;16.91;;;16.90;;
66669;SDS011;53568;52.164;4.472;2024-02-21T14:19:13;16.92;;;16.92;;
66669;SDS011;53568;52.164;4.472;2024-02-21T14:21:39;16.16;;;16.16;;
66669;SDS011;53568;52.164;4.472;2024-02-21T14:24:05;15.58;;;15.58;;
66669;SDS011;53568;52.164;4.472;2024-02-21T14:26:32;15.97;;;15.97;;
66669;SDS011;53568;52.164;4.472;2024-02-21T14:28:58;15.96;;;15.96;;
66669;SDS011;53568;52.164;4.472;2024-02-21T14:31:23;15.21;;;15.21;;
66669;SDS011;53568;52.164;4.472;2024-02-21T14:33:50;15.17;;;14.92;;